Time;durP1;ratioP1;P1;durP2;ratioP2;P2;SDS_P1;SDS_P2;PMS_P1;PMS_P2;Temp;Humidity;BMP_temperature;BMP_pressure;BME280_temperature;BME280_humidity;BME280_pressure;Samples;Min_cycle;Max_cycle;Signal;HPM_P1;HPM_P2
2022/01/11 00:02:16;;;;;;;122.68;107.95;;;2.00;97.90;;;;;;5017747;28;20145;-79
2022/01/11 00:04:44;;;;;;;120.68;106.72;;;1.90;97.90;;;;;;5017334;28;20081;-79
2022/01/11 00:07:14;;;;;;;120.32;107.57;;;1.90;97.90;;;;;;5002413;28;21035;-79
2022/01/11 00:09:43;;;;;;;119.55;106.97;;;1.90;97.90;;;;;;4998670;28;20055;-79
2022/01/11 00:12:11;;;;;;;120.75;107.53;;;1.90;97.90;;;;;;4998901;28;20510;-79
2022/01/11 00:14:39;;;;;;;119.10;106.90;;;1.90;98.00;;;;;;4998890;28;20130;-79
2022/01/11 00:17:06;;;;;;;121.20;108.10;;;1.90;97.90;;;;;;4997466;28;20054;-79
2022/01/11 00:19:34;;;;;;;128.32;107.72;;;1.90;97.80;;;;;;4998704;28;20051;-79
2022/01/11 00:22:06;;;;;;;121.10;108.15;;;1.90;97.80;;;;;;4998344;28;20453;-79
2022/01/11 00:24:35;;;;;;;121.32;108.25;;;1.90;97.90;;;;;;4998390;28;20070;-79
2022/01/11 00:27:04;;;;;;;121.25;108.63;;;1.90;97.90;;;;;;4998161;28;20089;-79
2022/01/11 00:29:33;;;;;;;120.63;108.03;;;1.90;97.90;;;;;;5014680;28;20051;-79
2022/01/11 00:32:10;;;;;;;122.78;109.72;;;1.90;97.80;;;;;;4998629;28;20070;-79
2022/01/11 00:34:47;;;;;;;121.38;108.68;;;1.90;97.90;;;;;;4981710;28;20060;-79
2022/01/11 00:37:16;;;;;;;121.70;108.55;;;2.00;98.00;;;;;;5014571;28;20124;-79
2022/01/11 00:39:45;;;;;;;121.88;109.03;;;2.00;97.90;;;;;;5014528;28;20050;-79
2022/01/11 00:42:13;;;;;;;122.00;108.88;;;2.00;97.90;;;;;;4998559;28;20559;-79
2022/01/11 00:44:40;;;;;;;122.70;109.70;;;2.00;97.80;;;;;;4998196;28;20129;-79
2022/01/11 00:47:07;;;;;;;123.10;109.88;;;2.10;97.90;;;;;;5014321;28;20052;-79
2022/01/11 00:49:35;;;;;;;122.30;109.50;;;2.10;97.80;;;;;;4998246;28;20042;-79
2022/01/11 00:52:03;;;;;;;121.88;108.30;;;2.10;97.80;;;;;;4998076;28;20050;-79
2022/01/11 00:54:31;;;;;;;123.22;109.97;;;2.10;97.80;;;;;;4998030;28;20082;-79
2022/01/11 00:56:58;;;;;;;122.60;109.65;;;2.10;97.80;;;;;;4981342;28;20054;-79
2022/01/11 00:59:25;;;;;;;122.78;109.38;;;2.10;97.80;;;;;;4997779;28;20077;-79
2022/01/11 01:01:52;;;;;;;121.45;108.43;;;2.10;97.80;;;;;;4998109;28;20058;-79
2022/01/11 01:04:19;;;;;;;122.22;109.38;;;2.10;97.70;;;;;;4981701;28;20534;-79
2022/01/11 01:06:46;;;;;;;121.05;108.47;;;2.10;97.80;;;;;;4981405;28;20105;-79
2022/01/11 01:09:15;;;;;;;122.05;109.15;;;2.10;97.80;;;;;;4981368;28;20404;-79
2022/01/11 01:11:48;;;;;;;122.70;110.10;;;2.20;97.80;;;;;;4997523;28;20054;-79
2022/01/11 01:14:17;;;;;;;121.65;108.97;;;2.20;97.70;;;;;;4997713;28;20057;-79
2022/01/11 01:16:46;;;;;;;123.07;109.63;;;2.20;97.70;;;;;;4997573;28;20087;-79
2022/01/11 01:19:26;;;;;;;128.95;111.40;;;2.20;97.70;;;;;;4981635;28;20062;-79
2022/01/11 01:21:54;;;;;;;121.05;108.00;;;2.20;97.60;;;;;;4981367;28;20065;-78
2022/01/11 01:24:22;;;;;;;123.70;110.10;;;2.20;97.60;;;;;;4997660;28;20420;-79
2022/01/11 01:26:51;;;;;;;123.05;109.75;;;2.20;97.60;;;;;;4981286;28;20133;-79
2022/01/11 01:29:18;;;;;;;122.45;109.55;;;2.20;97.60;;;;;;4980119;28;20042;-79
2022/01/11 01:31:45;;;;;;;124.93;111.30;;;2.20;97.60;;;;;;4997723;28;20070;-79
2022/01/11 01:34:12;;;;;;;122.43;109.72;;;2.20;97.60;;;;;;4997044;28;20046;-79
2022/01/11 01:36:40;;;;;;;124.10;110.10;;;2.30;97.60;;;;;;4997342;28;20171;-79
2022/01/11 01:39:07;;;;;;;124.35;110.32;;;2.30;97.50;;;;;;4997092;28;20057;-79
2022/01/11 01:41:34;;;;;;;123.30;110.20;;;2.30;97.50;;;;;;4997280;28;20057;-79
2022/01/11 01:44:03;;;;;;;123.03;110.07;;;2.30;97.50;;;;;;4980990;28;20057;-79
2022/01/11 01:46:32;;;;;;;124.85;111.32;;;2.20;97.40;;;;;;4981049;28;20046;-79
2022/01/11 01:49:01;;;;;;;128.32;111.53;;;2.20;97.50;;;;;;5013285;28;20047;-79
2022/01/11 01:51:28;;;;;;;123.82;110.50;;;2.20;97.50;;;;;;4996848;28;20523;-79
2022/01/11 01:53:56;;;;;;;124.70;110.82;;;2.20;97.50;;;;;;4981069;28;20138;-80
2022/01/11 01:56:24;;;;;;;124.70;111.05;;;2.10;97.40;;;;;;5013359;28;20057;-79
2022/01/11 01:58:51;;;;;;;124.53;111.10;;;2.10;97.60;;;;;;5013138;28;20479;-79
2022/01/11 02:01:21;;;;;;;124.18;110.25;;;2.10;97.40;;;;;;4980617;28;20058;-79
2022/01/11 02:03:48;;;;;;;123.55;110.45;;;2.10;97.50;;;;;;4997341;28;20512;-79
2022/01/11 02:06:17;;;;;;;123.32;109.88;;;2.10;97.50;;;;;;5029764;28;20652;-79
2022/01/11 02:08:47;;;;;;;122.85;109.43;;;2.10;97.40;;;;;;4996574;28;20190;-79
2022/01/11 02:11:15;;;;;;;128.23;110.97;;;2.00;97.40;;;;;;4980064;28;20061;-79
2022/01/11 02:13:42;;;;;;;124.63;111.22;;;2.00;97.40;;;;;;5013519;28;20073;-79
2022/01/11 02:16:13;;;;;;;125.13;111.43;;;2.00;97.50;;;;;;4995714;28;20776;-79
2022/01/11 02:18:42;;;;;;;;;;;2.00;97.50;;;;;;5013035;28;20081;-80
2022/01/11 02:21:16;;;;;;;121.35;108.40;;;2.00;97.50;;;;;;4997172;28;19953;-79
2022/01/11 02:23:43;;;;;;;123.38;110.00;;;2.00;97.50;;;;;;4980421;28;20050;-79
2022/01/11 02:26:11;;;;;;;124.10;111.07;;;2.00;97.50;;;;;;4980651;28;20145;-79
2022/01/11 02:28:42;;;;;;;125.57;112.20;;;2.00;97.60;;;;;;4996721;28;20058;-79
2022/01/11 02:31:13;;;;;;;124.22;111.00;;;2.00;97.60;;;;;;4996954;28;20148;-79
2022/01/11 02:33:45;;;;;;;124.60;111.50;;;2.00;97.70;;;;;;5012302;28;20121;-79
2022/01/11 02:36:36;;;;;;;125.10;111.50;;;2.10;97.70;;;;;;4996007;28;20464;-79
2022/01/11 02:39:25;;;;;;;126.55;110.55;;;2.10;97.70;;;;;;4995923;28;20061;-80
2022/01/11 02:42:00;;;;;;;125.70;111.90;;;2.20;97.60;;;;;;4980365;28;20139;-79
2022/01/11 02:44:36;;;;;;;126.18;111.22;;;2.20;97.60;;;;;;4996021;28;20082;-79
2022/01/11 02:47:04;;;;;;;123.95;110.85;;;2.20;97.60;;;;;;4996347;28;20062;-79
2022/01/11 02:49:35;;;;;;;124.53;110.82;;;2.30;97.70;;;;;;4996557;28;20047;-79
2022/01/11 02:52:17;;;;;;;129.60;110.90;;;2.30;97.70;;;;;;4980164;28;20839;-79
2022/01/11 02:54:51;;;;;;;124.78;110.90;;;2.30;97.60;;;;;;4996563;28;20538;-79
2022/01/11 02:57:20;;;;;;;128.13;110.65;;;2.30;97.60;;;;;;4996249;28;20086;-79
2022/01/11 02:59:50;;;;;;;124.47;110.75;;;2.30;97.60;;;;;;5012966;28;20503;-79
2022/01/11 03:02:20;;;;;;;125.38;111.82;;;2.20;97.60;;;;;;4979972;28;20054;-80
2022/01/11 03:04:49;;;;;;;124.55;111.15;;;2.30;97.70;;;;;;4996637;28;20054;-79
2022/01/11 03:07:21;;;;;;;124.45;110.82;;;2.30;97.70;;;;;;4979995;28;20223;-79
2022/01/11 03:10:00;;;;;;;126.40;111.93;;;2.30;97.60;;;;;;4996300;28;20109;-79
2022/01/11 03:12:30;;;;;;;124.40;110.78;;;2.30;97.60;;;;;;4979992;28;20050;-79
2022/01/11 03:14:58;;;;;;;129.15;110.00;;;2.20;97.60;;;;;;4979929;28;20101;-79
2022/01/11 03:17:26;;;;;;;124.38;109.40;;;2.20;97.60;;;;;;4979513;28;20050;-79
2022/01/11 03:19:54;;;;;;;124.95;111.13;;;2.10;97.60;;;;;;4979784;28;20134;-79
2022/01/11 03:22:26;;;;;;;123.97;110.55;;;2.10;97.70;;;;;;5012420;28;20504;-79
2022/01/11 03:24:53;;;;;;;122.80;109.72;;;2.10;97.70;;;;;;4979581;28;20051;-79
2022/01/11 03:27:21;;;;;;;123.20;109.93;;;2.00;97.70;;;;;;4979566;28;20062;-80
2022/01/11 03:29:48;;;;;;;126.55;111.95;;;2.00;97.70;;;;;;4996017;28;20053;-80
2022/01/11 03:32:18;;;;;;;128.75;108.50;;;2.00;97.80;;;;;;4996541;28;20058;-79
2022/01/11 03:34:46;;;;;;;122.13;109.07;;;1.90;97.80;;;;;;4981311;28;20057;-79
2022/01/11 03:37:17;;;;;;;122.20;109.22;;;1.90;97.80;;;;;;4979474;28;20047;-79
2022/01/11 03:39:46;;;;;;;131.63;110.30;;;1.90;97.80;;;;;;4995573;28;20058;-79
2022/01/11 03:42:13;;;;;;;122.00;109.10;;;1.90;97.80;;;;;;4979303;28;20054;-79
2022/01/11 03:44:42;;;;;;;123.88;110.47;;;1.90;97.80;;;;;;4979575;28;20050;-79
2022/01/11 03:47:09;;;;;;;123.20;110.10;;;1.90;97.80;;;;;;4979221;28;20137;-79
2022/01/11 03:49:36;;;;;;;128.02;111.30;;;1.90;97.80;;;;;;4979553;28;20057;-79
2022/01/11 03:52:04;;;;;;;123.63;110.05;;;1.80;97.80;;;;;;4979775;28;20050;-79
2022/01/11 03:54:44;;;;;;;124.30;110.95;;;1.80;97.80;;;;;;4982737;28;20057;-79
2022/01/11 03:57:24;;;;;;;129.63;111.40;;;1.80;97.90;;;;;;4982523;28;20157;-79
2022/01/11 03:59:52;;;;;;;124.85;110.90;;;1.80;98.00;;;;;;4982539;28;20082;-79
2022/01/11 04:02:19;;;;;;;124.60;111.35;;;1.70;97.90;;;;;;4982741;28;20061;-79
2022/01/11 04:04:52;;;;;;;126.72;112.30;;;1.70;97.90;;;;;;4998826;28;20050;-79
2022/01/11 04:07:20;;;;;;;128.32;113.65;;;1.70;98.00;;;;;;4998721;28;20085;-79
2022/01/11 04:09:48;;;;;;;131.15;112.43;;;1.70;98.00;;;;;;5015126;28;20634;-79
2022/01/11 04:12:16;;;;;;;129.27;113.07;;;1.70;98.00;;;;;;5015185;28;20065;-79
2022/01/11 04:14:45;;;;;;;128.05;113.80;;;1.60;98.00;;;;;;4982480;28;20050;-79
2022/01/11 04:17:13;;;;;;;137.57;114.95;;;1.60;98.10;;;;;;4982074;28;20062;-80
2022/01/11 04:19:40;;;;;;;129.63;115.47;;;1.60;98.10;;;;;;5014959;28;20142;-79
2022/01/11 04:22:08;;;;;;;128.48;114.28;;;1.60;98.10;;;;;;4998485;28;20129;-79
2022/01/11 04:24:36;;;;;;;132.70;115.97;;;1.50;98.10;;;;;;4982434;28;20054;-79
2022/01/11 04:27:04;;;;;;;131.02;114.72;;;1.50;98.10;;;;;;4981989;28;20128;-80
2022/01/11 04:29:33;;;;;;;130.75;116.28;;;1.50;98.10;;;;;;4998542;28;20658;-79
2022/01/11 04:32:01;;;;;;;130.77;116.35;;;1.50;98.20;;;;;;4998387;28;20054;-79
2022/01/11 04:34:28;;;;;;;132.20;115.40;;;1.50;98.20;;;;;;4982095;28;20051;-80
2022/01/11 04:36:57;;;;;;;137.15;116.32;;;1.50;98.30;;;;;;4998517;28;20081;-80
2022/01/11 04:39:25;;;;;;;134.80;116.90;;;1.50;98.30;;;;;;4981974;28;20065;-79
2022/01/11 04:41:52;;;;;;;132.77;115.20;;;1.50;98.30;;;;;;5014773;28;20081;-79
2022/01/11 04:44:20;;;;;;;129.80;115.57;;;1.50;98.30;;;;;;5014561;28;20070;-79
2022/01/11 04:46:49;;;;;;;131.90;116.70;;;1.50;98.30;;;;;;5014690;28;20054;-79
2022/01/11 04:49:18;;;;;;;130.95;115.75;;;1.50;98.40;;;;;;4981755;28;20142;-80
2022/01/11 04:51:46;;;;;;;130.35;115.28;;;1.50;98.40;;;;;;4998056;28;20149;-79
2022/01/11 04:54:14;;;;;;;136.23;116.88;;;1.50;98.40;;;;;;4981745;28;20046;-79
2022/01/11 04:56:43;;;;;;;142.07;118.22;;;1.50;98.40;;;;;;5014273;28;20054;-80
2022/01/11 04:59:11;;;;;;;135.82;117.13;;;1.50;98.40;;;;;;4981474;28;20054;-79
2022/01/11 05:01:40;;;;;;;136.50;116.45;;;1.60;98.50;;;;;;5014327;28;20055;-79
2022/01/11 05:04:07;;;;;;;140.30;116.95;;;1.50;98.50;;;;;;5014159;28;20046;-79
2022/01/11 05:06:36;;;;;;;135.63;115.57;;;1.50;98.60;;;;;;5014075;28;20070;-79
2022/01/11 05:09:04;;;;;;;129.05;113.97;;;1.50;98.50;;;;;;4981428;28;20679;-79
2022/01/11 05:11:31;;;;;;;137.45;118.82;;;1.50;98.50;;;;;;4981659;28;20145;-79
2022/01/11 05:13:58;;;;;;;136.63;117.78;;;1.50;98.50;;;;;;4997663;28;20053;-79
2022/01/11 05:16:36;;;;;;;132.77;114.95;;;1.50;98.50;;;;;;5014108;28;20530;-79
2022/01/11 05:19:06;;;;;;;138.02;117.03;;;1.50;98.60;;;;;;4981060;28;20459;-79
2022/01/11 05:21:34;;;;;;;130.77;116.00;;;1.50;98.60;;;;;;4981459;28;20081;-80
2022/01/11 05:24:02;;;;;;;132.32;115.30;;;1.50;98.60;;;;;;4997722;28;20141;-79
2022/01/11 05:26:29;;;;;;;133.57;115.20;;;1.50;98.60;;;;;;4981269;28;20046;-79
2022/01/11 05:28:56;;;;;;;136.23;117.38;;;1.50;98.60;;;;;;4997225;28;20063;-79
2022/01/11 05:31:23;;;;;;;143.55;117.35;;;1.50;98.60;;;;;;4981125;28;20046;-79
2022/01/11 05:33:50;;;;;;;133.20;116.63;;;1.50;98.60;;;;;;4980786;28;20133;-80
2022/01/11 05:36:17;;;;;;;135.60;115.73;;;1.50;98.60;;;;;;4997412;28;20050;-79
2022/01/11 05:38:45;;;;;;;;;;;1.50;98.60;;;;;;4981303;28;20076;-79
2022/01/11 05:41:13;;;;;;;136.90;113.85;;;1.50;98.60;;;;;;5030759;28;19926;-80
2022/01/11 05:43:41;;;;;;;138.75;117.97;;;1.50;98.60;;;;;;4981011;28;20058;-79
2022/01/11 05:46:09;;;;;;;140.43;118.15;;;1.50;98.60;;;;;;4980821;28;20109;-79
2022/01/11 05:48:42;;;;;;;138.43;118.22;;;1.50;98.60;;;;;;4980702;28;20456;-80
2022/01/11 05:51:10;;;;;;;138.25;117.97;;;1.50;98.60;;;;;;4997249;28;20101;-79
2022/01/11 05:53:37;;;;;;;137.05;117.57;;;1.50;98.60;;;;;;4980995;28;20057;-80
2022/01/11 05:56:04;;;;;;;134.32;116.72;;;1.50;98.60;;;;;;4980524;28;20061;-79
2022/01/11 05:58:33;;;;;;;135.23;116.20;;;1.50;98.60;;;;;;5013318;28;20061;-79
2022/01/11 06:01:00;;;;;;;144.70;119.93;;;1.50;98.70;;;;;;4980792;28;20496;-79
2022/01/11 06:03:28;;;;;;;136.32;117.50;;;1.50;98.70;;;;;;5014862;28;20066;-79
2022/01/11 06:05:55;;;;;;;135.90;117.38;;;1.50;98.60;;;;;;4997061;28;20114;-79
2022/01/11 06:08:22;;;;;;;136.48;116.45;;;1.50;98.70;;;;;;4980444;28;20496;-80
2022/01/11 06:10:50;;;;;;;133.68;116.25;;;1.50;98.70;;;;;;4980954;28;20051;-79
2022/01/11 06:13:20;;;;;;;134.48;115.47;;;1.50;98.70;;;;;;4997087;28;20077;-79
2022/01/11 06:15:51;;;;;;;143.57;118.13;;;1.60;98.70;;;;;;4996180;28;20046;-79
2022/01/11 06:18:20;;;;;;;139.52;118.20;;;1.60;98.70;;;;;;5012914;28;20058;-80
2022/01/11 06:21:05;;;;;;;135.88;115.57;;;1.60;98.70;;;;;;5013348;28;20192;-79
2022/01/11 06:23:32;;;;;;;134.25;115.07;;;1.60;98.70;;;;;;5013231;28;20047;-79
2022/01/11 06:25:59;;;;;;;135.50;117.82;;;1.60;98.70;;;;;;4980763;28;20058;-79
2022/01/11 06:28:27;;;;;;;133.00;115.97;;;1.60;98.70;;;;;;4996635;28;20073;-79
2022/01/11 06:30:55;;;;;;;133.73;116.63;;;1.60;98.70;;;;;;4996491;28;20137;-79
2022/01/11 06:33:22;;;;;;;139.00;116.75;;;1.60;98.70;;;;;;5013679;28;20054;-79
2022/01/11 06:35:50;;;;;;;137.43;116.72;;;1.60;98.60;;;;;;4996635;28;20046;-79
2022/01/11 06:38:17;;;;;;;133.65;115.07;;;1.60;98.60;;;;;;4980197;28;20051;-79
2022/01/11 06:40:45;;;;;;;132.90;114.93;;;1.60;98.60;;;;;;4979949;28;20050;-79
2022/01/11 06:43:13;;;;;;;133.60;114.10;;;1.60;98.60;;;;;;4996516;28;20603;-79
2022/01/11 06:45:40;;;;;;;134.90;115.50;;;1.60;98.60;;;;;;4980029;28;20610;-79
2022/01/11 06:48:12;;;;;;;139.13;115.97;;;1.60;98.60;;;;;;4979954;28;20059;-80
2022/01/11 06:50:39;;;;;;;131.98;112.82;;;1.60;98.60;;;;;;5003847;28;20659;-79
2022/01/11 06:53:07;;;;;;;129.13;112.97;;;1.60;98.50;;;;;;4996332;28;20058;-79
2022/01/11 06:59:35;;;;;;;132.65;112.53;;;1.60;98.50;;;;;;4995772;28;20516;-79
2022/01/11 07:02:05;;;;;;;128.00;112.22;;;1.60;98.50;;;;;;4979780;28;20051;-79
2022/01/11 07:04:56;;;;;;;127.38;111.45;;;1.50;98.40;;;;;;4995841;28;20051;-79
2022/01/11 07:07:23;;;;;;;129.93;112.25;;;1.60;98.40;;;;;;4979534;28;20117;-79
2022/01/11 07:09:51;;;;;;;129.65;111.57;;;1.60;98.40;;;;;;4979797;28;20054;-79
2022/01/11 07:12:19;;;;;;;129.57;111.85;;;1.60;98.40;;;;;;4979682;28;20054;-79
2022/01/11 07:14:46;;;;;;;124.60;111.03;;;1.60;98.40;;;;;;4979728;28;20046;-79
2022/01/11 07:17:15;;;;;;;130.20;113.10;;;1.60;98.40;;;;;;4979365;28;20230;-80
2022/01/11 07:19:42;;;;;;;127.00;111.68;;;1.60;98.30;;;;;;4979370;28;20050;-79
2022/01/11 07:22:14;;;;;;;127.30;111.72;;;1.50;98.20;;;;;;4995914;28;20555;-79
2022/01/11 07:24:44;;;;;;;126.05;112.32;;;1.50;98.20;;;;;;4995716;28;20098;-79
2022/01/11 07:27:14;;;;;;;126.63;111.97;;;1.50;98.20;;;;;;4979160;28;20493;-79
2022/01/11 07:29:41;;;;;;;128.73;110.90;;;1.50;98.30;;;;;;4982414;28;20050;-80
2022/01/11 07:32:08;;;;;;;126.38;112.57;;;1.40;98.20;;;;;;4982292;28;20793;-79
2022/01/11 07:34:36;;;;;;;127.97;110.70;;;1.40;98.20;;;;;;4981535;28;20050;-79
2022/01/11 07:37:04;;;;;;;128.32;111.63;;;1.40;98.20;;;;;;4999170;28;20081;-79
2022/01/11 07:39:35;;;;;;;126.68;112.63;;;1.40;98.20;;;;;;4982572;28;20050;-79
2022/01/11 07:42:02;;;;;;;123.82;109.75;;;1.40;98.20;;;;;;4983073;28;20501;-79
2022/01/11 07:44:53;;;;;;;123.68;109.13;;;1.40;98.20;;;;;;4998845;28;20049;-81
2022/01/11 07:47:22;;;;;;;125.93;111.43;;;1.40;98.20;;;;;;4982016;28;20508;-80
2022/01/11 07:49:50;;;;;;;124.78;110.90;;;1.40;98.10;;;;;;4998730;28;20048;-80
2022/01/11 07:52:18;;;;;;;124.93;110.47;;;1.40;98.00;;;;;;4982168;28;20050;-80
2022/01/11 07:54:47;;;;;;;125.53;111.20;;;1.40;98.00;;;;;;4982222;28;20053;-80
2022/01/11 07:57:17;;;;;;;121.85;108.50;;;1.30;98.00;;;;;;4992577;28;20050;-88
2022/01/11 07:59:44;;;;;;;126.93;112.40;;;1.30;98.00;;;;;;5018574;28;20064;-84
2022/01/11 08:02:13;;;;;;;124.47;110.78;;;1.30;98.10;;;;;;5002415;28;20054;-85
2022/01/11 08:04:40;;;;;;;127.40;112.05;;;1.30;98.10;;;;;;4988299;28;20078;-85
2022/01/11 08:07:10;;;;;;;127.65;113.53;;;1.30;98.10;;;;;;4981282;28;20061;-84
2022/01/11 08:09:47;;;;;;;124.93;110.20;;;1.30;98.10;;;;;;4983145;28;20043;-84
2022/01/11 08:12:14;;;;;;;123.22;109.78;;;1.30;98.00;;;;;;4998936;28;20815;-84
2022/01/11 08:14:42;;;;;;;122.95;109.65;;;1.30;97.90;;;;;;4982508;28;20151;-84
2022/01/11 08:17:11;;;;;;;126.00;112.03;;;1.30;97.90;;;;;;4982579;28;20124;-85
2022/01/11 08:19:38;;;;;;;;;;;1.20;98.00;;;;;;4999500;28;20058;-84
2022/01/11 08:22:07;;;;;;;121.55;108.15;;;1.20;98.00;;;;;;4999798;28;19926;-83
2022/01/11 08:24:44;;;;;;;123.38;109.95;;;1.20;98.00;;;;;;4998719;28;20150;-84
2022/01/11 08:27:14;;;;;;;123.30;109.97;;;1.20;98.00;;;;;;4998842;28;20046;-83
2022/01/11 08:29:43;;;;;;;126.50;112.38;;;1.20;98.00;;;;;;4998704;28;20493;-84
2022/01/11 08:32:11;;;;;;;124.03;110.45;;;1.20;98.00;;;;;;4998131;28;20519;-83
2022/01/11 08:34:40;;;;;;;123.95;110.40;;;1.20;98.10;;;;;;4981884;28;20057;-83
2022/01/11 08:37:09;;;;;;;123.18;109.70;;;1.20;98.10;;;;;;4982534;28;20054;-83
2022/01/11 08:39:37;;;;;;;122.35;109.15;;;1.30;98.10;;;;;;4998383;28;20057;-88
2022/01/11 08:42:05;;;;;;;120.82;107.78;;;1.30;98.10;;;;;;4983715;28;20050;-87
2022/01/11 08:44:36;;;;;;;119.22;106.28;;;1.20;98.10;;;;;;4983208;28;20057;-87
2022/01/11 08:47:04;;;;;;;122.35;109.00;;;1.20;98.00;;;;;;5000026;28;20050;-84
2022/01/11 08:49:37;;;;;;;121.68;108.60;;;1.30;97.90;;;;;;4982083;28;20633;-83
2022/01/11 08:52:05;;;;;;;122.50;109.27;;;1.30;97.80;;;;;;4981679;28;20050;-83
2022/01/11 08:54:33;;;;;;;122.03;108.82;;;1.20;97.80;;;;;;4981645;28;20046;-85
2022/01/11 08:57:01;;;;;;;122.18;108.78;;;1.20;97.90;;;;;;4981598;28;20562;-83
2022/01/11 08:59:29;;;;;;;123.40;109.53;;;1.20;98.00;;;;;;4981244;28;20942;-84
2022/01/11 09:02:02;;;;;;;124.72;111.05;;;1.20;98.00;;;;;;4997110;28;20503;-83
2022/01/11 09:04:31;;;;;;;123.18;109.68;;;1.10;98.00;;;;;;4981235;28;20062;-82
2022/01/11 09:07:07;;;;;;;124.45;110.55;;;1.20;98.10;;;;;;4981464;28;20050;-81
2022/01/11 09:09:34;;;;;;;122.45;108.53;;;1.20;98.10;;;;;;4980172;28;20193;-82
2022/01/11 09:12:08;;;;;;;126.93;111.95;;;1.10;98.00;;;;;;4981350;28;20047;-81
2022/01/11 09:14:38;;;;;;;124.00;110.40;;;1.10;98.10;;;;;;4980539;28;20046;-82
2022/01/11 09:17:07;;;;;;;103.30;91.35;;;1.20;98.10;;;;;;4977837;28;20055;-81
2022/01/11 09:19:35;;;;;;;127.20;113.00;;;1.10;98.10;;;;;;4993307;28;20059;-82
2022/01/11 09:22:02;;;;;;;126.25;112.03;;;1.10;98.30;;;;;;4978188;28;20047;-81
2022/01/11 09:24:30;;;;;;;126.07;110.00;;;1.10;98.20;;;;;;4970151;28;20046;-83
2022/01/11 09:26:59;;;;;;;125.40;110.47;;;1.10;98.20;;;;;;5000809;28;20496;-84
2022/01/11 09:29:31;;;;;;;127.25;111.85;;;1.10;98.30;;;;;;5017265;28;20141;-84
2022/01/11 09:32:00;;;;;;;125.68;111.80;;;1.10;98.40;;;;;;5000611;28;20049;-86
2022/01/11 09:34:32;;;;;;;127.68;113.63;;;1.10;98.50;;;;;;5017002;28;20085;-86
2022/01/11 09:36:59;;;;;;;126.45;112.35;;;1.20;98.50;;;;;;4992344;28;20075;-84
2022/01/11 09:39:27;;;;;;;127.70;112.00;;;1.20;98.50;;;;;;4987681;28;20058;-84
2022/01/11 09:41:58;;;;;;;128.40;112.15;;;1.20;98.50;;;;;;4997965;28;20054;-85
2022/01/11 09:44:27;;;;;;;127.70;112.93;;;1.20;98.60;;;;;;4997569;28;20058;-85
2022/01/11 09:46:55;;;;;;;133.70;118.95;;;1.30;98.70;;;;;;5014650;22;20042;-83
2022/01/11 09:49:22;;;;;;;126.90;113.00;;;1.30;98.60;;;;;;5016705;28;20137;-81
2022/01/11 09:51:54;;;;;;;127.32;111.80;;;1.30;98.60;;;;;;5032818;28;20108;-80
2022/01/11 09:54:22;;;;;;;124.32;110.63;;;1.30;98.60;;;;;;5033292;28;20050;-80
2022/01/11 09:56:49;;;;;;;124.85;111.10;;;1.40;98.70;;;;;;5033330;28;20053;-81
2022/01/11 09:59:19;;;;;;;127.70;113.65;;;1.40;98.70;;;;;;5033142;28;20045;-79
2022/01/11 10:02:18;;;;;;;128.95;113.25;;;1.40;98.70;;;;;;5032647;28;20068;-82
2022/01/11 10:05:10;;;;;;;123.70;109.82;;;1.50;98.70;;;;;;5022686;28;20046;-81
2022/01/11 10:07:50;;;;;;;122.05;108.68;;;1.50;98.70;;;;;;5026944;28;20152;-81
2022/01/11 10:10:19;;;;;;;125.90;112.28;;;1.50;98.70;;;;;;5016405;28;20053;-82
2022/01/11 10:12:50;;;;;;;126.07;112.38;;;1.50;98.70;;;;;;5016647;28;20141;-82
2022/01/11 10:15:27;;;;;;;126.00;112.28;;;1.60;98.80;;;;;;5030171;28;20057;-82
2022/01/11 10:17:55;;;;;;;124.07;110.55;;;1.60;98.80;;;;;;5018863;28;20500;-79
2022/01/11 10:20:26;;;;;;;127.45;113.70;;;1.60;98.80;;;;;;5018420;28;20072;-78
2022/01/11 10:23:13;;;;;;;125.60;112.18;;;1.60;98.80;;;;;;5029399;28;20046;-78
2022/01/11 10:25:49;;;;;;;125.30;111.82;;;1.70;98.80;;;;;;5015717;28;20053;-77
2022/01/11 10:28:17;;;;;;;125.53;112.05;;;1.70;98.80;;;;;;5015137;28;20093;-79
2022/01/11 10:30:51;;;;;;;125.70;111.88;;;1.70;98.80;;;;;;5014740;28;20046;-76
2022/01/11 10:33:18;;;;;;;126.30;112.55;;;1.70;98.80;;;;;;5032238;28;20079;-76
2022/01/11 10:35:49;;;;;;;124.47;110.78;;;1.70;98.80;;;;;;5030962;28;20050;-76
2022/01/11 10:38:31;;;;;;;125.97;112.22;;;1.80;98.80;;;;;;5015236;28;20045;-78
2022/01/11 10:41:02;;;;;;;128.00;114.40;;;1.80;98.80;;;;;;5031953;28;20054;-77
2022/01/11 10:43:42;;;;;;;126.32;112.85;;;1.80;98.80;;;;;;5031049;28;20079;-78
2022/01/11 10:46:10;;;;;;;125.38;112.13;;;1.90;98.80;;;;;;5014792;28;20046;-79
2022/01/11 10:48:40;;;;;;;122.40;109.28;;;1.90;98.80;;;;;;5014671;28;20466;-76
2022/01/11 10:51:16;;;;;;;125.75;112.22;;;1.90;98.80;;;;;;5030417;28;20101;-78
2022/01/11 10:53:49;;;;;;;125.03;111.63;;;1.90;98.80;;;;;;5016066;28;20050;-80
2022/01/11 10:56:18;;;;;;;124.97;111.57;;;2.00;98.80;;;;;;5015870;28;20072;-77
2022/01/11 10:59:07;;;;;;;122.07;108.85;;;2.00;98.80;;;;;;5015723;28;20105;-79
2022/01/11 11:01:38;;;;;;;122.70;109.57;;;2.10;98.90;;;;;;5033078;28;20046;-78
2022/01/11 11:04:07;;;;;;;125.15;111.93;;;2.10;98.80;;;;;;5036120;28;20077;-79
2022/01/11 11:06:35;;;;;;;125.78;112.43;;;2.20;99.00;;;;;;5035156;28;20449;-79
2022/01/11 11:09:17;;;;;;;123.22;110.10;;;2.30;98.80;;;;;;5019359;28;20136;-81
2022/01/11 11:12:19;;;;;;;124.35;110.93;;;2.40;98.80;;;;;;5019086;28;20041;-79
2022/01/11 11:15:03;;;;;;;123.88;110.60;;;2.50;98.70;;;;;;5017990;28;20053;-77
2022/01/11 11:17:36;;;;;;;124.50;111.10;;;2.50;98.50;;;;;;5018097;28;20677;-77
2022/01/11 11:20:12;;;;;;;122.15;108.80;;;2.60;98.50;;;;;;5033554;28;20065;-79
2022/01/11 11:22:41;;;;;;;125.82;112.22;;;2.60;98.50;;;;;;5034643;28;20050;-75
2022/01/11 11:25:10;;;;;;;126.20;112.95;;;2.70;98.50;;;;;;5034976;28;20058;-76
2022/01/11 11:27:37;;;;;;;122.97;109.50;;;2.80;98.60;;;;;;5051133;28;20516;-75
2022/01/11 11:30:05;;;;;;;124.97;111.35;;;2.80;98.70;;;;;;5037059;28;20583;-77
2022/01/11 11:32:36;;;;;;;125.05;111.65;;;2.90;98.70;;;;;;5032343;28;20069;-77
2022/01/11 11:35:04;;;;;;;125.72;112.35;;;3.00;98.60;;;;;;5024514;28;20132;-77
2022/01/11 11:37:34;;;;;;;121.47;108.45;;;3.00;98.30;;;;;;5031508;28;20050;-77
2022/01/11 11:40:04;;;;;;;125.47;112.07;;;3.10;98.20;;;;;;5031327;28;20049;-77
2022/01/11 11:42:34;;;;;;;121.95;108.72;;;3.20;98.10;;;;;;5036822;28;20057;-77
2022/01/11 11:45:01;;;;;;;123.00;109.97;;;3.20;97.90;;;;;;5035323;28;20060;-77
2022/01/11 11:47:31;;;;;;;123.03;109.95;;;3.20;98.00;;;;;;5034336;28;20483;-77
2022/01/11 11:50:01;;;;;;;123.75;110.45;;;3.30;97.80;;;;;;5051812;28;20046;-77
2022/01/11 11:52:31;;;;;;;123.63;110.63;;;3.40;97.90;;;;;;5034714;28;20074;-77
2022/01/11 11:54:59;;;;;;;124.78;111.55;;;3.40;98.00;;;;;;5035207;28;20052;-77
2022/01/11 11:57:30;;;;;;;124.80;111.32;;;3.50;97.80;;;;;;5051229;28;20151;-77
2022/01/11 12:00:00;;;;;;;124.45;110.90;;;3.60;97.50;;;;;;5029253;28;20128;-77
2022/01/11 12:02:33;;;;;;;124.03;110.82;;;3.70;97.50;;;;;;5030229;28;20060;-76
2022/01/11 12:05:01;;;;;;;125.78;112.25;;;3.80;97.60;;;;;;5019212;28;20415;-76
2022/01/11 12:07:32;;;;;;;123.15;109.97;;;3.80;97.60;;;;;;4998313;28;20152;-77
2022/01/11 12:10:03;;;;;;;123.80;110.55;;;3.90;97.60;;;;;;5015021;28;20058;-78
2022/01/11 12:12:52;;;;;;;123.70;110.38;;;4.00;97.30;;;;;;5014896;28;20150;-77
2022/01/11 12:15:38;;;;;;;124.35;111.05;;;4.10;97.20;;;;;;5026572;28;20073;-76
2022/01/11 12:18:16;;;;;;;123.93;110.68;;;4.20;97.30;;;;;;5034962;28;20112;-75
2022/01/11 12:20:45;;;;;;;123.40;110.15;;;4.30;97.40;;;;;;5034293;28;20080;-78
2022/01/11 12:23:20;;;;;;;124.70;111.53;;;4.40;97.00;;;;;;5034625;28;20137;-78
2022/01/11 12:25:55;;;;;;;124.68;111.32;;;4.50;96.60;;;;;;5034304;28;20053;-78
2022/01/11 12:28:26;;;;;;;125.22;112.13;;;4.60;96.50;;;;;;5033901;28;20516;-80
2022/01/11 12:31:24;;;;;;;125.72;112.43;;;4.60;96.50;;;;;;5035934;28;20104;-79
2022/01/11 12:33:52;;;;;;;123.53;110.57;;;4.60;96.10;;;;;;5033785;28;20054;-79
2022/01/11 12:36:23;;;;;;;125.57;112.45;;;4.60;96.00;;;;;;5026862;28;20090;-77
2022/01/11 12:39:01;;;;;;;124.15;111.10;;;4.60;96.20;;;;;;5035094;28;20050;-79